FMNA

Arrachart Airport

Madagascar
METAR FMNA 201500Z 14019KT 9999 FEW020 24/14 Q1016
Observed Flight Rules
Aug-20 @ 15:00 UTC (9 hours ago) Visual Flight Rules
Wind Visibility Clouds
140° at 19 knots 10,000+ meters
  • Few at 2,000' AGL
Temperatures Readings
Current 24°C / 75°F
Dewpoint 14°C / 57°F
Humidity 54%
Altimeter 30" Hg
Pressure 1016 hPa
Elevation 105
METAR FMNA 201500Z 14019KT 9999 FEW020 24/14 Q1016
Observed Flight Rules
Aug-20 @ 15:00 UTC
(9 hours ago)
VFR
Wind Visibility
140° at 19 knots 10,000+ meters
Clouds
  • Few at 2,000' AGL
Temperature Dewpoint
24°C / 75°F 14°C / 57°F
Humidity Altimeter Pressure
54% 30" Hg 1016 hPa